Airfield :
LOGIN :

Register | Disclaimer

   EN    FR    IT 

 










Legend :    VFR   Marginal VFR   IFR   Intensive IFR   Very Intensive IFR
Visi :
Ceiling :
>= 8 km
>= 3000ft
5 to 8 km
1000 to 3000 ft
1500m to 5 km
500 to 1000 ft
800 to 1500m
200 to 500 ft
< 800m
< 200 ft
Symbols :   Thunderstorms  Fog  Heavy snow  Heavy precipitations  Wind > 20 kt
SIGMETs :     Misc.  Thunderstorms  Icing  Turbulence  Mountain Waves  Volcanic Ashes






- Airport Elevation : 1475 ft


LSZC - Buochs Stans

CURRENT METAR :
  • 301520Z AUTO 29002KT 9999 FEW120 SCT///CB 25/19 Q1011

EXPIRED METARs :
  • 301450Z AUTO VRB02KT 9999 FEW100 SCT///CB 27/16 Q1011
  • 301420Z AUTO VRB03KT 9999 NCD 27/17 Q1011
  • 301350Z VRB02KT 9999 SCT100 26/19 Q1012
  • 301320Z VRB02KT 9999 BKN100 25/18 Q1012
  • 301250Z VRB03KT 9999 -RA FEW090 BKN100 23/18 Q1013

TAF TAF LSZC
Valid from the 30 at 15:00 until the 01 at 00:00 UTC


301425Z 3015/3024 VRB02KT 9999 FEW040 SCT100
TEMPO 3015/3024 SHRA FEW040TCU
TEMPO 3016/3022 33015G25KT 4000 TSRA SCT040CB



MET'MAP, your aeronautical weather chart ! - Copyright ORBIFLY December 2007 - Disclaimer

ORBIFLY MET'MAP TEAM :

Programming & Development : Alexandra Zaïnal
Original concept : Baudouin d'Aumeries
Technical & hardware support : Manuel Goepfert
Assistance : Marc-Olivier Méhu




SOURCES & CREDITS :

   NOAA